Time;durP1;ratioP1;P1;durP2;ratioP2;P2;SDS_P1;SDS_P2;PMS_P1;PMS_P2;Temp;Humidity;BMP_temperature;BMP_pressure;BME280_temperature;BME280_humidity;BME280_pressure;Samples;Min_cycle;Max_cycle;Signal;HPM_P1;HPM_P2
2021/07/14 00:01:14;;;;;;;41.05;29.38;;;19.20;99.90;;;;;;4162293;28;20038;-77
2021/07/14 00:03:15;;;;;;;39.78;27.30;;;19.20;99.90;;;;;;4161648;28;20032;-77
2021/07/14 00:05:18;;;;;;;37.85;26.15;;;19.20;99.90;;;;;;4177927;28;20029;-77
2021/07/14 00:07:19;;;;;;;37.38;27.70;;;19.30;99.90;;;;;;4162467;28;20053;-77
2021/07/14 00:09:20;;;;;;;39.50;26.80;;;19.20;99.90;;;;;;4162902;28;20085;-77
2021/07/14 00:11:20;;;;;;;40.90;26.58;;;19.30;99.90;;;;;;4162897;28;22827;-77
2021/07/14 00:17:49;;;;;;;40.75;28.33;;;19.20;99.90;;;;;;4162722;28;20029;-77
2021/07/14 00:22:12;;;;;;;34.90;26.77;;;19.20;99.90;;;;;;4162347;28;20049;-76
2021/07/14 00:24:12;;;;;;;31.63;24.92;;;19.20;99.90;;;;;;4162353;28;20041;-76
2021/07/14 00:26:13;;;;;;;39.53;25.50;;;19.20;99.90;;;;;;4164792;28;20603;-77
2021/07/14 00:28:15;;;;;;;35.88;26.95;;;19.20;99.90;;;;;;4163066;28;20033;-76
2021/07/14 00:30:23;;;;;;;35.10;26.45;;;19.20;99.90;;;;;;4164616;28;20022;-77
2021/07/14 00:32:25;;;;;;;32.40;25.35;;;19.20;99.90;;;;;;4164620;28;20041;-76
2021/07/14 00:34:25;;;;;;;37.28;26.15;;;19.10;99.90;;;;;;4164266;28;20048;-76
2021/07/14 00:36:26;;;;;;;38.97;25.73;;;19.20;99.90;;;;;;4164415;28;20112;-76
2021/07/14 00:38:26;;;;;;;32.40;25.70;;;19.10;99.90;;;;;;4164082;28;20033;-77
2021/07/14 00:40:27;;;;;;;40.88;28.50;;;19.20;99.90;;;;;;4163833;28;20041;-77
2021/07/14 00:42:27;;;;;;;32.33;24.40;;;19.20;99.90;;;;;;4164849;28;20034;-77
2021/07/14 00:44:29;;;;;;;35.08;23.50;;;19.20;99.90;;;;;;4165177;28;20034;-77
2021/07/14 00:46:30;;;;;;;38.90;27.90;;;19.20;99.90;;;;;;4165458;28;20033;-77
2021/07/14 00:48:30;;;;;;;41.78;26.35;;;19.20;99.90;;;;;;4165376;28;20369;-77
2021/07/14 00:50:34;;;;;;;37.03;26.23;;;19.10;99.90;;;;;;4159040;28;20034;-76
2021/07/14 00:52:36;;;;;;;38.33;25.85;;;19.10;99.90;;;;;;4164709;28;20029;-77
2021/07/14 00:54:36;;;;;;;33.05;26.13;;;19.10;99.90;;;;;;4164894;28;20113;-76
2021/07/14 00:56:38;;;;;;;36.80;27.77;;;19.10;99.90;;;;;;4163698;28;20064;-77
2021/07/14 00:58:39;;;;;;;41.13;28.25;;;19.00;99.90;;;;;;4165340;28;20037;-77
2021/07/14 01:00:40;;;;;;;44.00;28.52;;;19.00;99.90;;;;;;4164709;28;20052;-77
2021/07/14 01:02:40;;;;;;;33.25;25.88;;;19.00;99.90;;;;;;4165021;28;20033;-77
2021/07/14 01:04:52;;;;;;;40.03;27.33;;;19.10;99.90;;;;;;4163825;28;20422;-77
2021/07/14 01:07:04;;;;;;;38.53;26.13;;;19.00;99.90;;;;;;4165251;28;20079;-76
2021/07/14 01:09:09;;;;;;;40.92;27.48;;;19.10;99.90;;;;;;4164456;28;20061;-77
2021/07/14 01:11:18;;;;;;;42.58;28.38;;;19.10;99.90;;;;;;4150818;28;20041;-77
2021/07/14 01:13:39;;;;;;;42.03;29.17;;;19.00;99.90;;;;;;4163445;28;20039;-77
2021/07/14 01:15:46;;;;;;;40.42;28.35;;;19.10;99.90;;;;;;4164495;28;20029;-77
2021/07/14 01:17:59;;;;;;;46.05;29.35;;;19.10;99.90;;;;;;4165294;28;20052;-77
2021/07/14 01:20:33;;;;;;;43.78;29.75;;;19.10;99.90;;;;;;4164385;28;20029;-76
2021/07/14 01:22:52;;;;;;;41.05;28.85;;;19.10;99.90;;;;;;4164512;28;20113;-77
2021/07/14 01:25:21;;;;;;;45.05;28.55;;;19.10;99.90;;;;;;4162344;28;20109;-76
2021/07/14 01:27:23;;;;;;;40.65;28.27;;;19.20;99.90;;;;;;4154917;28;20026;-77
2021/07/14 01:29:26;;;;;;;47.17;29.95;;;19.10;99.90;;;;;;4163254;28;20029;-77
2021/07/14 01:31:29;;;;;;;43.85;30.02;;;19.10;99.90;;;;;;4164024;28;20026;-77
2021/07/14 01:33:39;;;;;;;39.90;30.48;;;19.10;99.90;;;;;;4160025;28;20048;-77
2021/07/14 01:35:45;;;;;;;36.13;26.92;;;19.10;99.90;;;;;;4154109;28;20026;-76
2021/07/14 01:37:47;;;;;;;47.75;31.35;;;19.10;99.90;;;;;;4161647;28;20133;-77
2021/07/14 01:39:54;;;;;;;45.20;29.27;;;19.10;99.90;;;;;;4178578;28;20025;-77
2021/07/14 01:41:56;;;;;;;42.45;28.63;;;19.10;99.90;;;;;;4162932;28;20033;-77
2021/07/14 01:43:59;;;;;;;45.83;29.00;;;19.20;99.90;;;;;;4160909;28;20038;-77
2021/07/14 01:46:01;;;;;;;44.08;29.42;;;19.10;99.90;;;;;;4154192;28;20500;-77
2021/07/14 01:48:02;;;;;;;41.72;28.25;;;19.00;99.90;;;;;;4161671;28;20112;-77
2021/07/14 01:50:05;;;;;;;56.80;31.42;;;19.00;99.90;;;;;;4177213;28;20158;-77
2021/07/14 01:52:12;;;;;;;44.33;29.70;;;18.90;99.90;;;;;;4161767;28;20116;-76
2021/07/14 01:54:14;;;;;;;42.85;30.55;;;18.80;99.90;;;;;;4162689;28;20056;-77
2021/07/14 01:56:15;;;;;;;45.55;28.23;;;18.80;99.90;;;;;;4161806;28;20472;-77
2021/07/14 01:58:17;;;;;;;40.90;28.65;;;18.90;99.90;;;;;;4154776;28;20022;-77
2021/07/14 02:00:19;;;;;;;44.50;29.55;;;18.90;99.90;;;;;;4162843;28;20040;-77
2021/07/14 02:02:24;;;;;;;44.92;30.90;;;18.90;99.90;;;;;;4162491;28;20243;-77
2021/07/14 02:04:31;;;;;;;44.00;30.13;;;18.80;99.90;;;;;;4161757;28;20025;-77
2021/07/14 02:06:33;;;;;;;39.95;26.27;;;18.90;99.90;;;;;;4161420;28;20029;-76
2021/07/14 02:08:38;;;;;;;47.15;30.20;;;18.80;99.90;;;;;;4162899;28;20492;-77
2021/07/14 02:10:41;;;;;;;45.00;30.08;;;18.70;99.90;;;;;;4163078;28;20467;-77
2021/07/14 02:12:46;;;;;;;47.17;28.70;;;18.80;99.90;;;;;;4157555;28;20439;-76
2021/07/14 02:14:58;;;;;;;47.92;29.13;;;18.80;99.90;;;;;;4162213;28;20025;-77
2021/07/14 02:17:03;;;;;;;53.00;31.77;;;18.80;99.90;;;;;;4164009;28;20041;-77
2021/07/14 02:19:06;;;;;;;45.38;30.15;;;18.80;99.90;;;;;;4163670;28;20029;-76
2021/07/14 02:21:07;;;;;;;44.95;30.65;;;18.80;99.90;;;;;;4162091;28;20048;-77
2021/07/14 02:23:08;;;;;;;48.53;31.15;;;18.70;99.90;;;;;;4163362;28;20033;-76
2021/07/14 02:25:10;;;;;;;45.08;29.75;;;18.70;99.90;;;;;;4163467;28;20159;-76
2021/07/14 02:27:11;;;;;;;44.58;31.35;;;18.70;99.90;;;;;;4164045;28;20024;-77
2021/07/14 02:29:12;;;;;;;49.60;30.77;;;18.70;99.90;;;;;;4163483;28;20071;-76
2021/07/14 02:31:13;;;;;;;45.35;29.10;;;18.70;99.90;;;;;;4163710;28;20038;-77
2021/07/14 02:33:14;;;;;;;41.63;29.30;;;18.80;99.90;;;;;;4161377;28;20048;-76
2021/07/14 02:35:17;;;;;;;38.67;27.75;;;18.80;99.90;;;;;;4161145;28;20033;-76
2021/07/14 02:37:25;;;;;;;40.22;27.63;;;18.80;99.90;;;;;;4156013;28;20026;-76
2021/07/14 02:39:27;;;;;;;41.65;28.10;;;18.80;99.90;;;;;;4161913;28;20041;-77
2021/07/14 02:41:53;;;;;;;38.10;26.48;;;18.70;99.90;;;;;;4179603;28;20040;-77
2021/07/14 02:44:01;;;;;;;32.92;25.85;;;18.80;99.90;;;;;;4161462;28;20113;-77
2021/07/14 02:46:13;;;;;;;38.42;26.52;;;18.80;99.90;;;;;;4173277;28;20065;-77
2021/07/14 02:48:14;;;;;;;34.92;25.17;;;18.70;99.90;;;;;;4168010;28;20565;-77
2021/07/14 02:50:19;;;;;;;31.90;24.33;;;18.80;99.90;;;;;;4188285;28;20120;-77
2021/07/14 02:52:23;;;;;;;36.35;23.77;;;18.70;99.90;;;;;;4185441;28;20036;-77
2021/07/14 02:54:27;;;;;;;38.53;24.45;;;18.80;99.90;;;;;;4169976;28;20033;-77
2021/07/14 02:56:31;;;;;;;35.10;23.17;;;18.80;99.90;;;;;;4178696;28;20373;-76
2021/07/14 02:58:34;;;;;;;38.20;26.98;;;18.80;99.90;;;;;;4175713;28;20033;-77
2021/07/14 03:00:40;;;;;;;29.95;24.02;;;18.80;99.90;;;;;;4167523;28;20041;-77
2021/07/14 03:02:41;;;;;;;33.78;24.77;;;18.80;99.90;;;;;;4162840;28;20472;-77
2021/07/14 03:04:46;;;;;;;29.25;23.98;;;18.70;99.90;;;;;;4163297;28;20030;-77
2021/07/14 03:06:47;;;;;;;30.77;23.33;;;18.90;99.90;;;;;;4165007;28;20033;-76
2021/07/14 03:08:50;;;;;;;30.95;21.65;;;18.90;99.90;;;;;;4170383;28;20072;-77
2021/07/14 03:10:55;;;;;;;26.05;21.33;;;18.90;99.90;;;;;;4163358;28;20031;-77
2021/07/14 03:13:02;;;;;;;29.30;23.67;;;18.90;99.90;;;;;;4162526;28;20056;-76
2021/07/14 03:15:11;;;;;;;28.88;22.17;;;18.80;99.90;;;;;;4161091;28;20022;-76
2021/07/14 03:17:14;;;;;;;29.50;22.33;;;18.80;99.90;;;;;;4163122;28;20030;-76
2021/07/14 03:19:16;;;;;;;27.42;23.58;;;18.80;99.90;;;;;;4163060;28;20033;-76
2021/07/14 03:21:18;;;;;;;25.75;22.33;;;18.80;99.90;;;;;;4161749;28;20029;-76
2021/07/14 03:23:19;;;;;;;30.02;22.67;;;18.80;99.90;;;;;;4159892;28;20067;-76
2021/07/14 03:25:20;;;;;;;28.58;23.38;;;18.70;99.90;;;;;;4161591;28;20033;-76
2021/07/14 03:27:21;;;;;;;29.00;24.58;;;18.70;99.90;;;;;;4162931;28;20038;-76
2021/07/14 03:29:24;;;;;;;30.27;24.85;;;18.70;99.90;;;;;;4163077;28;20037;-76
2021/07/14 03:31:26;;;;;;;28.08;24.75;;;18.70;99.90;;;;;;4161739;28;20191;-76
2021/07/14 03:33:31;;;;;;;34.60;24.65;;;18.70;99.90;;;;;;4161373;28;20037;-75
2021/07/14 03:35:32;;;;;;;27.88;22.95;;;18.70;99.90;;;;;;4162415;28;20041;-76
2021/07/14 03:37:35;;;;;;;30.33;22.98;;;18.60;99.90;;;;;;4161923;28;20030;-76
2021/07/14 03:39:42;;;;;;;35.80;26.17;;;18.70;99.90;;;;;;4162390;28;20080;-76
2021/07/14 03:41:44;;;;;;;31.23;24.08;;;18.70;99.90;;;;;;4162219;28;20033;-76
2021/07/14 03:43:45;;;;;;;28.70;24.17;;;18.70;99.90;;;;;;4161361;28;20029;-76
2021/07/14 03:45:48;;;;;;;30.00;25.40;;;18.80;99.90;;;;;;4162378;28;20068;-76
2021/07/14 03:47:50;;;;;;;35.58;26.15;;;18.70;99.90;;;;;;4162180;28;20393;-77
2021/07/14 03:49:51;;;;;;;32.97;25.52;;;18.70;99.90;;;;;;4161855;28;20108;-76
2021/07/14 03:51:52;;;;;;;35.03;26.52;;;18.70;99.90;;;;;;4161379;28;20049;-76
2021/07/14 03:53:53;;;;;;;32.95;26.23;;;18.70;99.90;;;;;;4160498;28;20037;-76
2021/07/14 03:55:54;;;;;;;34.70;26.40;;;18.60;99.90;;;;;;4160598;28;20045;-76
2021/07/14 03:57:55;;;;;;;35.13;26.63;;;18.60;99.90;;;;;;4161778;28;20053;-76
2021/07/14 03:59:57;;;;;;;38.13;29.75;;;18.50;99.90;;;;;;4162503;28;20041;-76
2021/07/14 04:01:59;;;;;;;34.95;27.42;;;18.50;99.90;;;;;;4164923;28;20100;-77
2021/07/14 04:04:00;;;;;;;31.45;26.58;;;18.50;99.90;;;;;;4164952;28;20052;-77
2021/07/14 04:06:03;;;;;;;32.08;27.08;;;18.60;99.90;;;;;;4165508;28;20029;-76
2021/07/14 04:08:04;;;;;;;34.67;25.42;;;18.50;99.90;;;;;;4164606;28;20086;-76
2021/07/14 04:10:05;;;;;;;36.22;26.73;;;18.60;99.90;;;;;;4165953;28;20075;-77
2021/07/14 04:12:06;;;;;;;36.50;26.92;;;18.60;99.90;;;;;;4165568;28;20028;-77
2021/07/14 04:14:07;;;;;;;32.30;24.58;;;18.60;99.90;;;;;;4165859;28;20441;-77
2021/07/14 04:16:08;;;;;;;35.67;25.65;;;18.70;99.90;;;;;;4165751;28;20121;-76
2021/07/14 04:18:11;;;;;;;30.52;24.73;;;18.70;99.90;;;;;;4165794;28;20030;-76
2021/07/14 04:20:12;;;;;;;32.92;24.60;;;18.70;99.90;;;;;;4164327;28;20506;-76
2021/07/14 04:22:13;;;;;;;39.25;24.27;;;18.70;99.90;;;;;;4165162;28;20061;-77
2021/07/14 04:24:14;;;;;;;26.67;22.83;;;18.70;99.90;;;;;;4164242;28;20100;-76
2021/07/14 04:26:15;;;;;;;29.13;24.27;;;18.80;99.90;;;;;;4164183;28;20033;-76
2021/07/14 04:28:15;;;;;;;28.58;23.23;;;18.80;99.90;;;;;;4165720;28;20034;-77
2021/07/14 04:30:17;;;;;;;36.90;24.30;;;18.80;99.90;;;;;;4165201;28;20029;-76
2021/07/14 04:32:18;;;;;;;31.30;23.35;;;18.80;99.90;;;;;;4164928;28;20029;-77
2021/07/14 04:34:19;;;;;;;28.60;22.77;;;18.80;99.90;;;;;;4165358;28;20109;-77
2021/07/14 04:36:19;;;;;;;26.80;22.02;;;18.80;99.90;;;;;;4163840;28;20033;-77
2021/07/14 04:38:21;;;;;;;32.35;23.92;;;18.80;99.90;;;;;;4163762;28;20037;-77
2021/07/14 04:40:25;;;;;;;32.15;22.10;;;18.80;99.90;;;;;;4165284;28;20120;-77
2021/07/14 04:42:25;;;;;;;27.60;21.25;;;18.80;99.90;;;;;;4163839;28;20440;-77
2021/07/14 04:44:37;;;;;;;27.52;21.42;;;18.90;99.90;;;;;;4165068;28;20034;-77
2021/07/14 04:46:38;;;;;;;29.63;22.95;;;18.90;99.90;;;;;;4164203;28;20029;-77
2021/07/14 04:48:38;;;;;;;29.95;22.63;;;18.90;99.90;;;;;;4167243;28;20037;-76
2021/07/14 04:50:39;;;;;;;31.45;23.55;;;18.90;99.90;;;;;;4169287;28;20516;-76
2021/07/14 04:52:40;;;;;;;27.48;22.25;;;18.90;99.90;;;;;;4166873;28;20049;-76
2021/07/14 04:54:41;;;;;;;29.30;22.23;;;18.90;99.90;;;;;;4167007;28;20029;-76
2021/07/14 04:56:44;;;;;;;29.08;21.42;;;19.00;99.90;;;;;;4169026;28;20125;-76
2021/07/14 04:58:46;;;;;;;31.42;24.85;;;19.00;99.90;;;;;;4173608;28;20089;-76
2021/07/14 05:00:46;;;;;;;34.20;25.52;;;19.00;99.90;;;;;;4167340;28;20137;-77
2021/07/14 05:02:47;;;;;;;40.80;25.98;;;19.00;99.90;;;;;;4170640;28;20026;-77
2021/07/14 05:04:48;;;;;;;31.67;25.73;;;18.90;99.90;;;;;;4183184;28;20087;-76
2021/07/14 05:06:48;;;;;;;34.53;23.23;;;19.00;99.90;;;;;;4168236;28;20031;-77
2021/07/14 05:08:49;;;;;;;29.50;24.55;;;19.10;99.90;;;;;;4168128;28;20030;-76
2021/07/14 05:10:50;;;;;;;34.95;24.00;;;19.10;99.90;;;;;;4168874;28;20042;-76
2021/07/14 05:12:51;;;;;;;32.45;24.45;;;19.00;99.90;;;;;;4168694;28;20033;-76
2021/07/14 05:14:51;;;;;;;35.60;23.48;;;19.00;99.90;;;;;;4175281;28;20166;-76
2021/07/14 05:16:52;;;;;;;31.08;25.15;;;19.10;99.90;;;;;;4169002;28;20052;-76
2021/07/14 05:18:53;;;;;;;33.60;25.60;;;19.20;99.90;;;;;;4169236;28;20051;-76
2021/07/14 05:20:54;;;;;;;33.38;25.73;;;19.10;99.90;;;;;;4168109;28;20052;-76
2021/07/14 05:22:55;;;;;;;36.88;26.00;;;19.00;99.90;;;;;;4166515;28;20029;-77
2021/07/14 05:24:55;;;;;;;36.10;26.23;;;19.00;99.90;;;;;;4168325;28;20093;-76
2021/07/14 05:26:56;;;;;;;35.63;27.10;;;19.00;99.90;;;;;;4169199;28;20117;-76
2021/07/14 05:28:56;;;;;;;41.70;28.13;;;19.10;99.90;;;;;;4165976;28;20030;-76
2021/07/14 05:30:57;;;;;;;35.30;26.58;;;19.10;99.90;;;;;;4163802;28;20033;-76
2021/07/14 05:32:58;;;;;;;43.42;26.98;;;19.10;99.90;;;;;;4169332;28;20547;-76
2021/07/14 05:34:59;;;;;;;44.05;32.38;;;19.30;99.90;;;;;;4167326;28;20026;-76
2021/07/14 05:37:00;;;;;;;38.22;29.50;;;19.30;99.90;;;;;;4166064;28;20046;-76
2021/07/14 05:39:02;;;;;;;37.47;29.08;;;19.30;99.90;;;;;;4169657;28;20037;-76
2021/07/14 05:41:03;;;;;;;36.17;27.90;;;19.20;99.90;;;;;;4168971;28;20036;-76
2021/07/14 05:43:04;;;;;;;32.72;26.15;;;19.20;99.90;;;;;;4172282;28;20376;-76
2021/07/14 05:45:06;;;;;;;34.38;25.83;;;19.30;99.90;;;;;;4166111;28;20124;-76
2021/07/14 05:47:07;;;;;;;32.30;26.40;;;19.40;99.90;;;;;;4168663;28;20026;-76
2021/07/14 05:49:07;;;;;;;41.25;26.42;;;19.30;99.90;;;;;;4177032;28;20056;-77
2021/07/14 05:51:08;;;;;;;35.35;27.95;;;19.30;99.90;;;;;;4183399;28;20041;-76
2021/07/14 05:53:09;;;;;;;33.53;26.83;;;19.40;99.90;;;;;;4174496;28;20079;-76
2021/07/14 05:55:11;;;;;;;34.42;28.02;;;19.40;99.90;;;;;;4182730;28;20055;-76
2021/07/14 05:57:11;;;;;;;38.50;26.98;;;19.40;99.90;;;;;;4159851;28;20112;-76
2021/07/14 05:59:12;;;;;;;38.97;26.67;;;19.40;99.90;;;;;;4183818;28;20045;-76
2021/07/14 06:01:13;;;;;;;35.95;27.27;;;19.40;99.90;;;;;;4178535;28;20041;-76
2021/07/14 06:03:14;;;;;;;33.65;27.90;;;19.40;99.90;;;;;;4181743;28;21766;-76
2021/07/14 06:05:15;;;;;;;33.20;25.63;;;19.30;99.90;;;;;;4181679;28;20021;-77
2021/07/14 06:07:15;;;;;;;36.80;27.88;;;19.30;99.90;;;;;;4181960;28;20021;-76
2021/07/14 06:09:16;;;;;;;32.25;26.85;;;19.30;99.90;;;;;;4172697;28;20045;-76
2021/07/14 06:11:16;;;;;;;43.78;29.70;;;19.40;99.90;;;;;;4170019;28;20025;-76
2021/07/14 06:13:18;;;;;;;33.38;26.77;;;19.40;99.90;;;;;;4170072;28;20034;-76
2021/07/14 06:15:18;;;;;;;36.95;28.52;;;19.40;99.90;;;;;;4167369;28;20123;-77
2021/07/14 06:17:19;;;;;;;38.15;26.85;;;19.40;99.90;;;;;;4169088;28;20036;-76
2021/07/14 06:19:20;;;;;;;38.70;27.85;;;19.40;99.90;;;;;;4168291;28;20480;-76
2021/07/14 06:21:22;;;;;;;39.10;28.02;;;19.50;99.90;;;;;;4167846;28;20048;-76
2021/07/14 06:23:23;;;;;;;35.92;26.15;;;19.50;99.90;;;;;;4168408;28;20060;-77
2021/07/14 06:25:24;;;;;;;34.22;26.90;;;19.50;99.90;;;;;;4168486;28;20029;-78
2021/07/14 06:27:24;;;;;;;39.17;29.70;;;19.40;99.90;;;;;;4170471;28;20037;-77
2021/07/14 06:29:25;;;;;;;37.03;29.38;;;19.50;99.90;;;;;;4168991;28;20100;-76
2021/07/14 06:31:25;;;;;;;31.35;27.08;;;19.50;99.90;;;;;;4170708;28;20055;-77
2021/07/14 06:33:27;;;;;;;36.00;26.15;;;19.60;99.90;;;;;;4167555;28;20164;-77
2021/07/14 06:35:28;;;;;;;35.95;27.65;;;19.50;99.90;;;;;;4170971;28;20037;-77
2021/07/14 06:37:29;;;;;;;36.35;27.98;;;19.50;99.90;;;;;;4159850;28;20033;-77
2021/07/14 06:39:29;;;;;;;31.42;25.25;;;19.50;99.90;;;;;;4162695;28;20059;-77
2021/07/14 06:41:31;;;;;;;31.08;26.48;;;19.50;99.90;;;;;;4161984;28;20037;-77
2021/07/14 06:43:41;;;;;;;34.85;26.17;;;19.50;99.90;;;;;;4157874;28;20479;-78
2021/07/14 06:45:43;;;;;;;34.35;26.20;;;19.40;99.90;;;;;;4154081;28;20068;-77
2021/07/14 06:47:44;;;;;;;36.80;26.20;;;19.40;99.90;;;;;;4170261;28;20026;-78
2021/07/14 06:49:53;;;;;;;31.90;24.42;;;19.40;99.90;;;;;;4162931;28;20029;-77
2021/07/14 06:51:53;;;;;;;36.28;28.02;;;19.40;99.90;;;;;;4163007;28;20033;-77
2021/07/14 06:53:54;;;;;;;36.83;27.15;;;19.40;99.90;;;;;;4164264;28;20042;-78
2021/07/14 06:55:58;;;;;;;32.67;26.02;;;19.40;99.90;;;;;;4164163;28;20022;-77
2021/07/14 06:57:59;;;;;;;37.58;26.70;;;19.40;99.90;;;;;;4151178;28;20441;-77
2021/07/14 07:00:00;;;;;;;38.30;28.08;;;19.40;99.90;;;;;;4171475;28;20469;-77
2021/07/14 07:02:04;;;;;;;32.20;26.33;;;19.40;99.90;;;;;;4164445;28;20132;-77
2021/07/14 07:04:04;;;;;;;35.63;26.90;;;19.50;99.90;;;;;;4168292;28;20063;-77
2021/07/14 07:06:05;;;;;;;41.63;27.15;;;19.50;99.90;;;;;;4175897;28;20025;-76
2021/07/14 07:08:06;;;;;;;42.67;28.63;;;19.60;99.90;;;;;;4176766;28;20133;-77
2021/07/14 07:10:08;;;;;;;38.20;28.55;;;19.60;99.90;;;;;;4163535;28;20100;-77
2021/07/14 07:12:08;;;;;;;39.45;27.85;;;19.40;99.90;;;;;;4162806;28;20148;-77
2021/07/14 07:14:09;;;;;;;41.13;29.75;;;19.50;99.90;;;;;;4163203;28;20030;-77
2021/07/14 07:16:09;;;;;;;40.05;28.38;;;19.30;99.90;;;;;;4161790;28;20034;-76
2021/07/14 07:18:10;;;;;;;41.67;30.05;;;19.20;99.90;;;;;;4163217;28;20030;-76
2021/07/14 07:20:14;;;;;;;42.38;30.60;;;19.10;99.90;;;;;;4163188;28;20376;-76
2021/07/14 07:22:15;;;;;;;42.72;29.10;;;19.10;99.90;;;;;;4164659;28;20033;-76
2021/07/14 07:24:16;;;;;;;41.55;32.00;;;18.90;99.90;;;;;;4163177;28;20099;-76
2021/07/14 07:26:17;;;;;;;43.25;30.88;;;18.80;99.90;;;;;;4162513;28;20060;-76
2021/07/14 07:28:20;;;;;;;42.45;32.08;;;18.70;99.90;;;;;;4155297;28;20477;-76
2021/07/14 07:30:20;;;;;;;;;;;18.70;99.90;;;;;;4153131;28;20140;-76
2021/07/14 07:32:21;;;;;;;44.58;29.33;;;18.80;99.90;;;;;;4157984;28;20021;-76
2021/07/14 07:34:22;;;;;;;42.97;30.13;;;18.70;99.90;;;;;;4171117;28;20420;-76
2021/07/14 07:36:22;;;;;;;42.33;31.52;;;18.70;99.90;;;;;;4172531;28;20083;-77
2021/07/14 07:38:23;;;;;;;48.70;32.40;;;18.60;99.90;;;;;;4164954;28;20033;-77
2021/07/14 07:40:24;;;;;;;42.35;29.42;;;18.60;99.90;;;;;;4166681;28;20017;-77
2021/07/14 07:42:25;;;;;;;47.67;33.22;;;18.60;99.90;;;;;;4174324;28;20043;-77
2021/07/14 07:44:25;;;;;;;38.70;30.75;;;18.60;99.90;;;;;;4164612;28;20117;-76
2021/07/14 07:46:26;;;;;;;47.35;31.67;;;18.70;99.90;;;;;;4177128;28;20021;-76
2021/07/14 07:48:27;;;;;;;41.80;30.67;;;18.70;99.90;;;;;;4173170;28;20095;-76
2021/07/14 07:50:27;;;;;;;49.33;33.25;;;18.70;99.90;;;;;;4158713;28;20054;-76
2021/07/14 07:52:28;;;;;;;44.20;32.50;;;18.80;99.90;;;;;;4164130;28;20053;-76
2021/07/14 07:54:29;;;;;;;39.15;31.48;;;18.90;99.90;;;;;;4164539;28;20103;-76
2021/07/14 07:56:31;;;;;;;49.13;32.45;;;19.00;99.90;;;;;;4178838;28;20595;-76
2021/07/14 07:58:32;;;;;;;42.58;31.83;;;19.00;99.90;;;;;;4164709;28;20034;-76
2021/07/14 08:00:33;;;;;;;49.00;34.05;;;19.00;99.90;;;;;;4156566;28;20038;-76
2021/07/14 08:02:33;;;;;;;44.75;30.58;;;19.10;99.90;;;;;;4161828;28;20443;-76
2021/07/14 08:04:34;;;;;;;46.35;31.65;;;19.20;99.90;;;;;;4180922;28;20025;-76
2021/07/14 08:06:35;;;;;;;39.53;31.15;;;19.20;99.90;;;;;;4164265;28;20029;-78
2021/07/14 08:08:36;;;;;;;42.38;30.85;;;19.30;99.90;;;;;;4165873;28;20030;-78
2021/07/14 08:10:37;;;;;;;43.33;32.22;;;19.20;99.90;;;;;;4165897;28;20473;-76
2021/07/14 08:12:38;;;;;;;39.35;29.38;;;19.30;99.90;;;;;;4167480;28;20091;-76
2021/07/14 08:14:39;;;;;;;40.13;30.52;;;19.30;99.90;;;;;;4162238;28;20029;-76
2021/07/14 08:16:40;;;;;;;42.47;29.13;;;19.20;99.90;;;;;;4165755;28;20029;-77
2021/07/14 08:18:40;;;;;;;41.85;31.42;;;19.30;99.90;;;;;;4165494;28;20038;-77
2021/07/14 08:20:41;;;;;;;46.78;31.88;;;19.30;99.90;;;;;;4169082;28;20032;-77
2021/07/14 08:22:42;;;;;;;45.92;33.15;;;19.20;99.90;;;;;;4166041;28;20029;-77
2021/07/14 08:24:43;;;;;;;47.63;35.65;;;19.20;99.90;;;;;;4155086;28;20034;-76
2021/07/14 08:26:44;;;;;;;53.03;35.53;;;19.20;99.90;;;;;;4165881;28;20021;-77
2021/07/14 08:28:44;;;;;;;51.47;33.60;;;19.10;99.90;;;;;;4167000;28;20469;-76
2021/07/14 08:30:45;;;;;;;47.72;33.75;;;19.10;99.90;;;;;;4170150;28;20033;-76
2021/07/14 08:32:46;;;;;;;42.45;33.85;;;19.10;99.90;;;;;;4163788;28;20436;-77
2021/07/14 08:34:46;;;;;;;51.22;35.72;;;19.20;99.90;;;;;;4165652;28;20025;-76
2021/07/14 08:36:47;;;;;;;48.08;34.53;;;19.20;99.90;;;;;;4165680;28;20037;-76
2021/07/14 08:38:48;;;;;;;45.05;32.80;;;19.20;99.90;;;;;;4169595;28;20037;-76
2021/07/14 08:40:51;;;;;;;45.53;32.25;;;19.30;99.90;;;;;;4165538;28;20073;-76
2021/07/14 08:42:57;;;;;;;41.05;32.55;;;19.20;99.90;;;;;;4165126;28;20034;-76
2021/07/14 08:45:03;;;;;;;41.58;31.23;;;19.30;99.90;;;;;;4159123;28;20037;-76
2021/07/14 08:47:06;;;;;;;37.20;28.73;;;19.50;99.90;;;;;;4178075;28;20381;-77
2021/07/14 08:49:07;;;;;;;40.47;29.92;;;19.60;99.90;;;;;;4168472;28;20066;-76
2021/07/14 08:51:08;;;;;;;39.97;29.65;;;19.60;99.90;;;;;;4165294;28;20022;-76
2021/07/14 08:53:15;;;;;;;41.53;28.77;;;19.60;99.90;;;;;;4168750;28;20049;-77
2021/07/14 08:55:19;;;;;;;37.95;29.13;;;19.70;99.90;;;;;;4173031;28;20044;-77
2021/07/14 08:57:20;;;;;;;39.00;29.70;;;19.80;99.90;;;;;;4172916;28;20025;-77
2021/07/14 08:59:20;;;;;;;36.20;28.95;;;19.80;99.90;;;;;;4176745;28;20091;-77
2021/07/14 09:01:21;;;;;;;35.33;27.48;;;19.80;99.90;;;;;;4166715;28;20555;-76
2021/07/14 09:03:23;;;;;;;33.50;25.98;;;19.80;99.90;;;;;;4173285;28;20079;-76
2021/07/14 09:05:23;;;;;;;35.45;29.15;;;19.90;99.90;;;;;;4178658;28;20033;-76
2021/07/14 09:07:24;;;;;;;36.50;25.90;;;20.00;99.90;;;;;;4176773;28;20499;-76
2021/07/14 09:09:24;;;;;;;36.38;27.73;;;20.00;99.90;;;;;;4176294;28;20067;-76
2021/07/14 09:11:25;;;;;;;37.28;27.52;;;20.00;99.90;;;;;;4169953;28;20088;-76
2021/07/14 09:13:37;;;;;;;36.38;26.33;;;19.90;99.90;;;;;;4172311;28;20080;-76
2021/07/14 09:15:41;;;;;;;38.03;27.52;;;20.00;99.90;;;;;;4165383;28;20037;-76
2021/07/14 09:17:47;;;;;;;32.63;26.23;;;20.00;99.90;;;;;;4164678;28;20033;-76
2021/07/14 09:19:49;;;;;;;34.58;27.33;;;20.10;99.90;;;;;;4166382;28;20060;-76
2021/07/14 09:21:51;;;;;;;34.13;26.33;;;20.10;99.90;;;;;;4177190;28;20046;-76
2021/07/14 09:23:51;;;;;;;31.60;23.52;;;20.10;99.90;;;;;;4175726;28;20057;-76
2021/07/14 09:26:03;;;;;;;28.90;23.90;;;20.00;99.90;;;;;;4174467;28;20044;-77
2021/07/14 09:28:05;;;;;;;41.92;26.77;;;20.00;99.90;;;;;;4172735;28;20486;-77
2021/07/14 09:30:12;;;;;;;32.05;25.60;;;20.00;99.90;;;;;;4173317;28;20032;-76
2021/07/14 09:32:13;;;;;;;33.70;26.13;;;20.10;99.90;;;;;;4177929;28;20025;-77
2021/07/14 09:34:32;;;;;;;33.85;26.02;;;20.10;99.90;;;;;;4164606;28;20029;-77
2021/07/14 09:36:34;;;;;;;32.97;23.65;;;19.90;99.90;;;;;;4164339;28;20137;-77
2021/07/14 09:38:40;;;;;;;35.50;26.60;;;19.80;99.90;;;;;;4163210;28;20025;-77
2021/07/14 09:40:45;;;;;;;35.97;25.80;;;19.80;99.90;;;;;;4165727;28;21213;-77
2021/07/14 09:43:22;;;;;;;32.50;24.65;;;19.90;99.90;;;;;;4166406;28;20124;-77
2021/07/14 09:45:45;;;;;;;32.45;25.60;;;19.90;99.90;;;;;;4143740;28;20567;-77
2021/07/14 09:47:45;;;;;;;33.13;25.58;;;19.90;99.90;;;;;;4173617;28;20036;-76
2021/07/14 09:49:47;;;;;;;37.42;26.45;;;19.90;99.90;;;;;;4157819;28;20026;-76
2021/07/14 09:51:48;;;;;;;41.87;25.90;;;20.00;99.90;;;;;;4175495;28;20033;-77
2021/07/14 09:53:54;;;;;;;32.75;26.40;;;20.00;99.90;;;;;;4156254;28;20298;-76
2021/07/14 09:55:57;;;;;;;39.13;28.48;;;19.90;99.90;;;;;;4161880;28;20037;-76
2021/07/14 09:58:12;;;;;;;38.55;27.15;;;19.80;99.90;;;;;;4155147;28;20492;-76
2021/07/14 10:00:19;;;;;;;41.15;27.50;;;19.80;99.90;;;;;;4152662;28;20608;-76
2021/07/14 10:02:20;;;;;;;33.17;26.55;;;19.70;99.90;;;;;;4161146;28;20032;-77
2021/07/14 10:04:26;;;;;;;39.30;26.75;;;19.70;99.90;;;;;;4154993;28;20476;-76
2021/07/14 10:06:26;;;;;;;39.15;25.58;;;19.60;99.90;;;;;;4159274;28;20068;-76
2021/07/14 10:08:28;;;;;;;36.70;25.80;;;19.60;99.90;;;;;;4164865;28;20037;-76
2021/07/14 10:10:28;;;;;;;36.65;26.23;;;19.70;99.90;;;;;;4163993;28;20092;-76
2021/07/14 10:12:32;;;;;;;31.85;24.45;;;19.60;99.90;;;;;;4162366;28;20038;-76
2021/07/14 10:14:32;;;;;;;36.60;23.38;;;19.60;99.90;;;;;;4163691;28;20033;-77
2021/07/14 10:16:36;;;;;;;35.65;25.17;;;19.60;99.90;;;;;;4162888;28;20036;-76
2021/07/14 10:18:36;;;;;;;;;;;19.60;99.90;;;;;;4161330;28;20508;-76
2021/07/14 10:20:38;;;;;;;34.55;25.50;;;19.50;99.90;;;;;;4158141;28;19920;-76
2021/07/14 10:22:39;;;;;;;41.03;24.67;;;19.40;99.90;;;;;;4163321;28;20042;-76
2021/07/14 10:24:40;;;;;;;34.65;23.42;;;19.40;99.90;;;;;;4161076;28;20026;-76
2021/07/14 10:26:44;;;;;;;36.63;23.80;;;19.30;99.90;;;;;;4155783;28;20026;-76
2021/07/14 10:28:45;;;;;;;30.70;23.38;;;19.40;99.90;;;;;;4157229;28;20026;-76
2021/07/14 10:30:51;;;;;;;34.38;23.70;;;19.40;99.90;;;;;;4149365;28;20068;-76